Time;durP1;ratioP1;P1;durP2;ratioP2;P2;SDS_P1;SDS_P2;PMS_P1;PMS_P2;Temp;Humidity;BMP_temperature;BMP_pressure;BME280_temperature;BME280_humidity;BME280_pressure;Samples;Min_cycle;Max_cycle;Signal;HPM_P1;HPM_P2
2021/07/06 00:02:16;;;;;;;1.67;0.80;;;18.70;99.90;;;;;;5072913;28;20186;-85
2021/07/06 00:04:42;;;;;;;5.38;0.60;;;18.70;99.90;;;;;;5074593;28;20184;-86
2021/07/06 00:07:08;;;;;;;4.07;0.77;;;18.90;99.90;;;;;;5074693;28;20215;-86
2021/07/06 00:09:34;;;;;;;1.77;1.00;;;18.90;99.90;;;;;;5074464;28;20250;-87
2021/07/06 00:12:00;;;;;;;0.82;0.60;;;18.90;99.90;;;;;;5073582;28;20195;-87
2021/07/06 00:14:25;;;;;;;5.93;0.90;;;18.90;99.90;;;;;;5074141;28;20210;-83
2021/07/06 00:16:51;;;;;;;4.00;0.90;;;18.80;99.90;;;;;;5072791;28;20569;-86
2021/07/06 00:19:17;;;;;;;0.88;0.60;;;18.80;99.90;;;;;;5077045;28;20181;-86
2021/07/06 00:21:42;;;;;;;1.05;0.80;;;18.80;99.90;;;;;;5093494;28;20170;-86
2021/07/06 00:24:08;;;;;;;1.13;0.70;;;18.80;99.90;;;;;;5093598;28;20180;-86
2021/07/06 00:26:34;;;;;;;4.80;0.90;;;18.80;99.90;;;;;;5094617;28;20185;-86
2021/07/06 00:29:00;;;;;;;3.80;0.80;;;18.80;99.90;;;;;;5110520;28;20197;-87
2021/07/06 00:31:26;;;;;;;7.00;0.90;;;18.80;99.90;;;;;;5093910;28;20174;-87
2021/07/06 00:33:52;;;;;;;0.77;0.70;;;18.80;99.90;;;;;;5094421;28;20202;-87
2021/07/06 00:36:18;;;;;;;1.27;0.82;;;18.90;99.90;;;;;;5091307;28;20182;-86
2021/07/06 00:38:44;;;;;;;3.05;0.90;;;18.80;99.90;;;;;;5083294;28;20173;-86
2021/07/06 00:41:10;;;;;;;7.68;0.90;;;18.80;99.90;;;;;;5093847;28;20673;-87
2021/07/06 00:43:37;;;;;;;1.38;0.73;;;18.80;99.90;;;;;;5094297;28;20260;-87
2021/07/06 00:46:04;;;;;;;2.25;0.80;;;18.80;99.90;;;;;;5094134;28;20162;-84
2021/07/06 00:48:30;;;;;;;0.70;0.70;;;18.90;99.90;;;;;;5082944;28;20174;-85
2021/07/06 00:50:56;;;;;;;4.63;0.88;;;18.80;99.90;;;;;;5073510;28;20257;-85
2021/07/06 00:53:22;;;;;;;1.98;0.90;;;18.90;99.90;;;;;;5072729;28;20209;-88
2021/07/06 00:55:50;;;;;;;3.53;1.08;;;18.90;99.90;;;;;;5076665;28;20179;-88
2021/07/06 00:58:18;;;;;;;3.20;0.70;;;18.90;99.90;;;;;;5076572;28;20200;-87
2021/07/06 01:00:44;;;;;;;1.95;0.77;;;19.00;99.90;;;;;;5078153;28;20191;-88
2021/07/06 01:03:10;;;;;;;1.63;0.77;;;19.00;99.90;;;;;;5078819;28;20572;-88
2021/07/06 01:05:37;;;;;;;3.22;0.90;;;19.00;99.90;;;;;;5079280;28;20647;-88
2021/07/06 01:08:03;;;;;;;1.13;0.90;;;19.10;99.90;;;;;;5079385;28;20224;-89
2021/07/06 01:10:29;;;;;;;3.30;0.80;;;19.20;99.90;;;;;;5078169;28;20166;-88
2021/07/06 01:12:55;;;;;;;6.05;1.00;;;19.10;99.90;;;;;;5077863;28;20202;-88
2021/07/06 01:15:23;;;;;;;3.70;0.70;;;19.20;99.90;;;;;;5076805;28;20174;-89
2021/07/06 01:18:05;;;;;;;2.28;0.90;;;19.30;99.90;;;;;;5080035;28;20174;-89
2021/07/06 01:20:31;;;;;;;1.75;0.60;;;19.40;99.90;;;;;;5076626;28;20163;-89
2021/07/06 01:22:58;;;;;;;1.55;0.75;;;19.40;99.90;;;;;;5077346;28;20179;-89
2021/07/06 01:25:24;;;;;;;4.10;0.80;;;19.30;99.90;;;;;;5077323;28;20167;-87
2021/07/06 01:27:50;;;;;;;1.55;0.60;;;19.30;99.90;;;;;;5076778;28;20193;-88
2021/07/06 01:30:17;;;;;;;3.30;1.00;;;19.20;99.90;;;;;;5077575;28;20570;-89
2021/07/06 01:32:46;;;;;;;4.53;0.85;;;19.20;99.90;;;;;;5077187;28;20198;-89
2021/07/06 01:35:14;;;;;;;4.50;0.70;;;19.20;99.90;;;;;;5076392;28;20532;-89
2021/07/06 01:37:49;;;;;;;0.90;0.70;;;19.30;99.90;;;;;;5077220;28;20194;-88
2021/07/06 01:40:16;;;;;;;2.88;0.70;;;19.30;99.90;;;;;;5077126;28;20188;-90
2021/07/06 01:42:42;;;;;;;5.07;0.80;;;19.30;99.90;;;;;;5078012;28;20531;-88
2021/07/06 01:45:11;;;;;;;3.15;0.80;;;19.30;99.90;;;;;;5075823;28;20163;-88
2021/07/06 01:47:42;;;;;;;2.00;0.80;;;19.30;99.90;;;;;;5093844;28;20232;-89
2021/07/06 01:50:12;;;;;;;1.60;0.80;;;19.30;99.90;;;;;;5097368;28;20253;-88
2021/07/06 01:52:46;;;;;;;4.82;0.98;;;19.20;99.90;;;;;;5096718;28;20269;-89
2021/07/06 01:55:14;;;;;;;6.95;0.80;;;19.20;99.90;;;;;;5097418;28;20651;-88
2021/07/06 01:57:40;;;;;;;7.10;0.90;;;19.20;99.90;;;;;;5097297;28;20167;-90
2021/07/06 02:00:12;;;;;;;5.03;0.93;;;19.20;99.90;;;;;;5095980;28;20186;-85
2021/07/06 02:02:38;;;;;;;4.72;1.20;;;19.20;99.90;;;;;;5113102;28;20227;-89
2021/07/06 02:05:30;;;;;;;3.53;0.75;;;19.30;99.90;;;;;;5094693;28;20215;-88
2021/07/06 02:07:56;;;;;;;2.58;0.80;;;19.30;99.90;;;;;;5062046;28;20189;-88
2021/07/06 02:10:23;;;;;;;2.28;0.80;;;19.20;99.90;;;;;;5075927;28;20183;-87
2021/07/06 02:12:48;;;;;;;1.70;0.95;;;19.20;99.90;;;;;;5075369;28;20269;-88
2021/07/06 02:15:16;;;;;;;1.55;0.98;;;19.20;99.90;;;;;;5075361;28;20179;-89
2021/07/06 02:17:43;;;;;;;3.83;0.90;;;19.20;99.90;;;;;;5093707;28;20657;-87
2021/07/06 02:20:12;;;;;;;2.38;0.80;;;19.20;99.90;;;;;;5095163;28;20182;-89
2021/07/06 02:22:39;;;;;;;5.55;1.00;;;19.20;99.90;;;;;;5096841;28;20688;-89
2021/07/06 02:25:06;;;;;;;4.22;1.08;;;19.30;99.90;;;;;;5096700;28;20224;-88
2021/07/06 02:27:32;;;;;;;2.95;1.15;;;19.30;99.90;;;;;;5112379;28;20192;-88
2021/07/06 02:29:58;;;;;;;6.80;1.00;;;19.40;99.90;;;;;;5095245;28;20568;-88
2021/07/06 02:32:24;;;;;;;1.67;1.00;;;19.40;99.90;;;;;;5095635;28;20611;-88
2021/07/06 02:34:50;;;;;;;1.75;0.90;;;19.40;99.90;;;;;;5076809;28;20221;-88
2021/07/06 02:37:16;;;;;;;3.38;1.02;;;19.50;99.90;;;;;;5075456;28;20171;-88
2021/07/06 02:39:42;;;;;;;6.38;1.00;;;19.40;99.90;;;;;;5076247;28;20192;-88
2021/07/06 02:42:08;;;;;;;1.75;1.00;;;19.40;99.90;;;;;;5076189;28;20189;-87
2021/07/06 02:44:33;;;;;;;2.65;1.00;;;19.50;99.90;;;;;;5074727;28;20630;-86
2021/07/06 02:46:59;;;;;;;2.03;0.90;;;19.50;99.90;;;;;;5087043;28;20304;-88
2021/07/06 02:49:24;;;;;;;4.40;1.08;;;19.40;99.90;;;;;;5094756;28;20181;-89
2021/07/06 02:51:50;;;;;;;3.58;1.20;;;19.50;99.90;;;;;;5095049;28;20178;-88
2021/07/06 02:54:16;;;;;;;8.63;1.95;;;19.50;99.90;;;;;;5095034;28;20259;-89
2021/07/06 02:56:41;;;;;;;3.92;1.45;;;19.50;99.90;;;;;;5080966;28;20596;-88
2021/07/06 02:59:07;;;;;;;9.32;1.20;;;19.50;99.90;;;;;;5074487;28;20179;-87
2021/07/06 03:01:33;;;;;;;1.77;0.90;;;19.40;99.90;;;;;;5074654;28;20190;-88
2021/07/06 03:03:58;;;;;;;2.50;1.27;;;19.50;99.90;;;;;;5074891;28;20175;-88
2021/07/06 03:06:27;;;;;;;4.65;1.10;;;19.40;99.90;;;;;;5074751;28;20217;-88
2021/07/06 03:08:55;;;;;;;4.40;1.30;;;19.50;99.90;;;;;;5074557;28;20623;-89
2021/07/06 03:11:21;;;;;;;8.63;1.20;;;19.60;99.90;;;;;;5075354;28;20202;-88
2021/07/06 03:13:47;;;;;;;3.65;0.80;;;19.70;99.90;;;;;;5074389;28;20230;-88
2021/07/06 03:16:13;;;;;;;2.67;1.65;;;19.70;99.90;;;;;;5056866;28;20244;-89
2021/07/06 03:18:38;;;;;;;2.92;1.05;;;19.70;99.90;;;;;;5074037;28;20694;-88
2021/07/06 03:21:04;;;;;;;6.45;1.30;;;19.60;99.90;;;;;;5074626;28;20654;-88
2021/07/06 03:23:30;;;;;;;10.73;1.52;;;19.60;99.90;;;;;;5073364;28;20182;-87
2021/07/06 03:25:55;;;;;;;8.20;1.20;;;19.50;99.90;;;;;;5074864;28;20183;-88
2021/07/06 03:28:21;;;;;;;5.53;1.25;;;19.60;99.90;;;;;;5057423;28;20177;-88
2021/07/06 03:30:47;;;;;;;3.13;1.20;;;19.60;99.90;;;;;;5075391;28;20175;-88
2021/07/06 03:33:12;;;;;;;6.22;1.20;;;19.60;99.90;;;;;;5073961;28;20690;-88
2021/07/06 03:35:38;;;;;;;8.02;1.17;;;19.60;99.90;;;;;;5074199;28;20170;-88
2021/07/06 03:38:05;;;;;;;13.88;1.50;;;19.60;99.90;;;;;;5074278;28;20167;-89
2021/07/06 03:40:32;;;;;;;4.50;1.40;;;19.60;99.90;;;;;;5073731;28;20167;-89
2021/07/06 03:42:58;;;;;;;7.50;1.50;;;19.50;99.90;;;;;;5074954;28;20662;-88
2021/07/06 03:45:25;;;;;;;7.90;1.25;;;19.60;99.90;;;;;;5075104;28;20175;-86
2021/07/06 03:47:51;;;;;;;9.23;1.10;;;19.50;99.90;;;;;;5073842;28;20266;-88
2021/07/06 03:50:20;;;;;;;5.43;1.10;;;19.50;99.90;;;;;;5074896;28;20174;-88
2021/07/06 03:52:47;;;;;;;4.85;1.20;;;19.50;99.90;;;;;;5074830;28;20198;-88
2021/07/06 03:55:13;;;;;;;2.92;1.10;;;19.50;99.90;;;;;;5074476;28;20253;-89
2021/07/06 03:57:39;;;;;;;7.05;1.50;;;19.50;99.90;;;;;;5073340;28;20182;-87
2021/07/06 04:00:11;;;;;;;8.00;1.50;;;19.60;99.90;;;;;;5054293;28;20190;-88
2021/07/06 04:02:37;;;;;;;2.60;1.30;;;19.70;99.90;;;;;;5070307;28;20183;-87
2021/07/06 04:05:05;;;;;;;5.97;1.38;;;19.70;99.90;;;;;;5053268;28;20175;-87
2021/07/06 04:07:30;;;;;;;5.10;1.10;;;19.80;99.90;;;;;;5070023;28;20168;-90
2021/07/06 04:09:56;;;;;;;4.88;1.00;;;19.80;99.90;;;;;;5070000;28;20178;-89
2021/07/06 04:12:22;;;;;;;1.77;1.10;;;19.90;99.90;;;;;;5070090;28;20200;-88
2021/07/06 04:14:48;;;;;;;2.45;1.20;;;19.90;99.90;;;;;;5054529;28;20258;-89
2021/07/06 04:17:14;;;;;;;2.67;1.23;;;19.90;99.90;;;;;;5102907;28;20650;-90
2021/07/06 04:19:39;;;;;;;2.92;1.33;;;20.00;99.90;;;;;;5093592;28;20174;-88
2021/07/06 04:22:05;;;;;;;6.53;1.15;;;20.00;99.90;;;;;;5075049;28;20213;-89
2021/07/06 04:24:32;;;;;;;9.10;1.05;;;20.00;99.90;;;;;;5074026;28;20163;-88
2021/07/06 04:26:58;;;;;;;1.67;1.10;;;20.00;99.90;;;;;;5056985;28;20240;-86
2021/07/06 04:29:24;;;;;;;1.77;1.10;;;20.00;99.90;;;;;;5056729;28;20175;-88
2021/07/06 04:31:50;;;;;;;5.93;1.65;;;20.00;99.90;;;;;;5056269;28;20186;-88
2021/07/06 04:34:15;;;;;;;5.05;1.13;;;20.00;99.90;;;;;;5074084;28;20542;-89
2021/07/06 04:36:41;;;;;;;5.75;1.27;;;20.10;99.90;;;;;;5056571;28;20182;-89
2021/07/06 04:39:07;;;;;;;6.30;1.10;;;20.10;99.90;;;;;;5056514;28;20695;-88
2021/07/06 04:41:32;;;;;;;7.80;1.17;;;20.10;99.90;;;;;;5056383;28;20174;-88
2021/07/06 04:43:58;;;;;;;3.33;1.52;;;20.10;99.90;;;;;;5077531;28;20185;-86
2021/07/06 04:46:23;;;;;;;3.63;1.38;;;20.10;99.90;;;;;;5094474;28;20170;-88
2021/07/06 04:48:49;;;;;;;1.63;1.30;;;20.20;99.90;;;;;;5078943;28;20178;-89
2021/07/06 04:51:15;;;;;;;5.10;1.20;;;20.20;99.90;;;;;;5073251;28;20166;-89
2021/07/06 04:53:42;;;;;;;8.68;1.30;;;20.20;99.90;;;;;;5072903;28;20199;-88
2021/07/06 04:56:07;;;;;;;4.00;1.15;;;20.20;99.90;;;;;;5088717;28;20303;-89
2021/07/06 04:58:35;;;;;;;4.85;1.23;;;20.20;99.90;;;;;;5093987;28;20194;-86
2021/07/06 05:01:01;;;;;;;4.80;1.33;;;20.20;99.90;;;;;;5092925;28;20531;-90
2021/07/06 05:03:29;;;;;;;3.65;1.00;;;20.10;99.90;;;;;;5092825;28;20240;-88
2021/07/06 05:05:55;;;;;;;5.90;1.13;;;20.20;99.90;;;;;;5109924;28;20669;-89
2021/07/06 05:08:21;;;;;;;5.25;1.40;;;20.20;99.90;;;;;;5094205;28;20166;-87
2021/07/06 05:10:46;;;;;;;7.32;1.20;;;20.20;99.90;;;;;;5094145;28;20262;-87
2021/07/06 05:13:13;;;;;;;4.97;1.30;;;20.20;99.90;;;;;;5094690;28;20208;-86
2021/07/06 05:15:38;;;;;;;5.20;1.25;;;20.30;99.90;;;;;;5077775;28;20666;-88
2021/07/06 05:18:05;;;;;;;6.20;1.50;;;20.20;99.90;;;;;;5077419;28;20179;-89
2021/07/06 05:20:31;;;;;;;2.92;1.20;;;20.20;99.90;;;;;;5056133;28;20179;-88
2021/07/06 05:22:57;;;;;;;2.65;1.27;;;20.10;99.90;;;;;;5073404;28;20167;-88
2021/07/06 05:25:23;;;;;;;6.13;1.40;;;20.00;99.90;;;;;;5073662;28;20528;-88
2021/07/06 05:27:48;;;;;;;8.93;1.40;;;19.90;99.90;;;;;;5073620;28;20498;-89
2021/07/06 05:30:15;;;;;;;3.78;1.35;;;19.70;99.90;;;;;;5072618;28;20171;-87
2021/07/06 05:32:40;;;;;;;2.20;0.95;;;19.70;99.90;;;;;;5073385;28;20202;-88
2021/07/06 05:35:10;;;;;;;1.85;0.90;;;19.60;99.90;;;;;;5072613;28;20179;-90
2021/07/06 05:37:37;;;;;;;1.63;0.80;;;19.50;99.90;;;;;;5072355;28;20177;-86
2021/07/06 05:40:08;;;;;;;10.25;0.95;;;19.40;99.90;;;;;;5074907;28;20171;-89
2021/07/06 05:42:34;;;;;;;2.88;0.73;;;19.50;99.90;;;;;;5077325;28;20249;-89
2021/07/06 05:45:01;;;;;;;7.43;0.95;;;19.50;99.90;;;;;;5077284;28;20170;-86
2021/07/06 05:47:27;;;;;;;3.30;0.90;;;19.50;99.90;;;;;;5082134;28;20549;-89
2021/07/06 05:49:52;;;;;;;4.70;0.80;;;19.50;99.90;;;;;;5096685;28;20170;-87
2021/07/06 05:52:18;;;;;;;1.70;0.82;;;19.60;99.90;;;;;;5096453;28;20209;-88
2021/07/06 05:54:44;;;;;;;9.35;1.45;;;19.50;99.90;;;;;;5097694;28;20202;-88
2021/07/06 05:57:09;;;;;;;6.47;0.98;;;19.50;99.90;;;;;;5091944;28;20538;-89
2021/07/06 05:59:35;;;;;;;6.93;1.10;;;19.50;99.90;;;;;;5096892;28;20181;-89
2021/07/06 06:02:00;;;;;;;2.53;0.60;;;19.50;99.90;;;;;;5095976;28;20173;-89
2021/07/06 06:04:27;;;;;;;6.28;1.05;;;19.50;99.90;;;;;;5096065;28;20319;-88
2021/07/06 06:06:53;;;;;;;5.30;1.10;;;19.40;99.90;;;;;;5096156;28;20660;-88
2021/07/06 06:09:19;;;;;;;10.45;1.02;;;19.30;99.90;;;;;;5113443;28;20170;-89
2021/07/06 06:11:44;;;;;;;3.45;0.90;;;19.30;99.90;;;;;;5094535;28;20178;-89
2021/07/06 06:14:10;;;;;;;14.07;1.15;;;19.40;99.90;;;;;;5075881;28;20219;-87
2021/07/06 06:16:36;;;;;;;2.83;0.90;;;19.40;99.90;;;;;;5076635;28;20225;-90
2021/07/06 06:19:02;;;;;;;4.47;1.08;;;19.60;99.90;;;;;;5058799;28;20173;-89
2021/07/06 06:21:28;;;;;;;4.97;1.30;;;19.70;99.90;;;;;;5075749;28;20174;-91
2021/07/06 06:23:54;;;;;;;2.97;0.90;;;19.70;99.90;;;;;;5076847;28;20183;-91
2021/07/06 06:26:20;;;;;;;4.10;0.75;;;19.80;99.90;;;;;;5076793;28;20173;-90
2021/07/06 06:28:46;;;;;;;5.47;0.82;;;20.10;99.90;;;;;;5076549;28;20620;-90
2021/07/06 06:31:12;;;;;;;2.58;0.70;;;20.20;99.90;;;;;;5076135;28;20173;-91
2021/07/06 06:33:37;;;;;;;3.97;0.80;;;20.40;99.90;;;;;;5064727;28;20198;-91
2021/07/06 06:36:03;;;;;;;2.38;0.80;;;20.60;99.90;;;;;;5093717;28;20171;-85
2021/07/06 06:38:29;;;;;;;2.00;0.60;;;20.90;99.90;;;;;;5090800;28;20201;-86
2021/07/06 06:40:54;;;;;;;1.92;0.93;;;21.50;99.90;;;;;;5094411;28;20185;-89
2021/07/06 06:43:20;;;;;;;3.25;0.75;;;22.10;99.90;;;;;;5108180;28;20251;-86
2021/07/06 06:45:47;;;;;;;4.65;0.70;;;22.70;99.90;;;;;;5106796;28;20197;-88
2021/07/06 06:48:13;;;;;;;4.43;0.85;;;22.50;99.90;;;;;;5098511;28;20516;-89
2021/07/06 06:50:39;;;;;;;6.57;0.60;;;22.40;99.90;;;;;;5058235;28;20186;-85
2021/07/06 06:53:05;;;;;;;8.55;0.98;;;22.70;99.90;;;;;;5061584;28;20237;-88
2021/07/06 06:55:30;;;;;;;5.45;1.08;;;23.80;99.90;;;;;;5070835;28;20210;-85
2021/07/06 06:57:56;;;;;;;4.57;1.10;;;24.70;99.90;;;;;;5058570;28;20700;-91
2021/07/06 07:00:22;;;;;;;5.72;0.88;;;25.20;99.90;;;;;;5075725;28;20182;-87
2021/07/06 07:02:50;;;;;;;2.08;0.77;;;25.30;99.90;;;;;;5074689;28;20220;-88
2021/07/06 07:05:16;;;;;;;7.63;0.77;;;24.70;99.90;;;;;;5075860;28;20637;-89
2021/07/06 07:07:43;;;;;;;2.72;0.82;;;23.60;99.90;;;;;;5075853;28;20205;-90
2021/07/06 07:10:11;;;;;;;13.43;1.40;;;22.90;99.90;;;;;;5074546;28;20170;-90
2021/07/06 07:12:37;;;;;;;4.07;1.10;;;23.10;99.90;;;;;;5074963;28;20558;-83
2021/07/06 07:15:04;;;;;;;22.52;1.52;;;23.70;99.90;;;;;;5074087;28;20170;-87
2021/07/06 07:17:30;;;;;;;4.28;1.00;;;24.20;99.90;;;;;;5090968;28;20162;-88
2021/07/06 07:19:55;;;;;;;5.85;1.13;;;24.30;99.90;;;;;;5094612;28;20184;-88
2021/07/06 07:22:22;;;;;;;7.70;1.15;;;25.00;99.90;;;;;;5094901;28;20198;-88
2021/07/06 07:24:48;;;;;;;12.27;1.58;;;25.70;99.90;;;;;;5094689;28;20174;-91
2021/07/06 07:27:13;;;;;;;3.35;1.15;;;26.50;99.90;;;;;;5094053;28;20609;-91
2021/07/06 07:29:39;;;;;;;8.43;1.10;;;27.50;99.90;;;;;;5095410;28;20219;-91
2021/07/06 07:32:05;;;;;;;4.65;0.93;;;28.40;99.90;;;;;;5094938;28;20174;-89
2021/07/06 07:34:33;;;;;;;7.70;1.15;;;29.20;99.90;;;;;;5054732;28;20168;-87
2021/07/06 07:37:00;;;;;;;6.05;1.23;;;28.90;99.90;;;;;;5077056;28;20224;-88
2021/07/06 07:39:25;;;;;;;12.40;0.70;;;27.30;99.90;;;;;;5075248;28;20170;-90
2021/07/06 07:41:51;;;;;;;5.72;1.05;;;27.10;99.90;;;;;;5074882;28;20182;-91
2021/07/06 07:44:17;;;;;;;6.88;1.10;;;26.70;99.90;;;;;;5077948;28;20523;-88
2021/07/06 07:46:43;;;;;;;4.13;1.38;;;27.50;99.90;;;;;;5077939;28;20520;-88
2021/07/06 07:49:08;;;;;;;5.03;1.02;;;28.20;99.90;;;;;;5092101;28;20178;-84
2021/07/06 07:51:34;;;;;;;6.03;0.80;;;27.00;99.90;;;;;;5073572;28;20654;-86
2021/07/06 07:54:00;;;;;;;11.02;1.13;;;26.10;99.90;;;;;;5077331;28;20202;-87
2021/07/06 07:56:25;;;;;;;17.90;1.65;;;24.50;99.90;;;;;;5076504;28;20702;-90
2021/07/06 07:58:52;;;;;;;2.63;1.10;;;23.20;99.90;;;;;;5077730;28;20583;-85
2021/07/06 08:01:18;;;;;;;4.65;0.82;;;23.30;99.90;;;;;;5072895;28;20200;-83
2021/07/06 08:03:43;;;;;;;4.60;1.08;;;23.80;99.90;;;;;;5095327;28;20253;-84
2021/07/06 08:06:10;;;;;;;7.70;1.10;;;25.30;99.90;;;;;;5086102;28;20642;-86
2021/07/06 08:08:36;;;;;;;2.80;0.95;;;25.50;99.90;;;;;;5058867;28;20183;-85
2021/07/06 08:11:02;;;;;;;3.90;0.88;;;24.30;99.90;;;;;;5055463;28;20213;-83
2021/07/06 08:13:28;;;;;;;5.90;1.10;;;23.20;99.90;;;;;;5068568;28;20686;-83
2021/07/06 08:15:55;;;;;;;6.20;1.33;;;22.10;99.90;;;;;;5057185;28;20179;-86
2021/07/06 08:18:20;;;;;;;9.98;0.98;;;21.60;99.90;;;;;;5074057;28;20641;-83
2021/07/06 08:20:47;;;;;;;4.22;1.45;;;23.20;99.90;;;;;;5074401;28;20175;-86
2021/07/06 08:23:13;;;;;;;10.35;1.67;;;26.10;99.90;;;;;;5073762;28;20173;-84
2021/07/06 08:25:39;;;;;;;2.72;0.80;;;27.00;99.90;;;;;;5080774;28;20167;-85
2021/07/06 08:28:05;;;;;;;9.57;1.30;;;25.60;99.90;;;;;;5090361;28;20166;-83
2021/07/06 08:30:31;;;;;;;20.88;1.83;;;23.90;99.90;;;;;;5083733;28;20199;-85
2021/07/06 08:32:56;;;;;;;10.50;1.33;;;23.20;99.90;;;;;;5073731;28;20211;-85
2021/07/06 08:35:22;;;;;;;5.68;1.50;;;22.70;99.90;;;;;;5079440;28;20209;-84
2021/07/06 08:37:48;;;;;;;10.15;1.58;;;22.30;99.90;;;;;;5074178;28;20270;-82
2021/07/06 08:40:14;;;;;;;14.15;1.70;;;22.30;99.90;;;;;;5094494;28;20167;-84
2021/07/06 08:42:40;;;;;;;5.50;1.40;;;22.90;99.90;;;;;;5091754;28;20176;-81
2021/07/06 08:45:08;;;;;;;9.70;1.40;;;22.30;99.90;;;;;;5078476;28;20542;-79
2021/07/06 08:47:35;;;;;;;15.18;1.58;;;21.80;99.90;;;;;;5081470;28;20227;-79
2021/07/06 08:50:07;;;;;;;8.00;1.33;;;21.70;99.90;;;;;;5086092;28;20631;-80
2021/07/06 08:52:37;;;;;;;8.00;1.67;;;22.20;99.90;;;;;;5078988;28;20195;-80
2021/07/06 08:55:03;;;;;;;9.95;1.67;;;22.40;99.90;;;;;;5073992;28;20202;-83
2021/07/06 08:57:28;;;;;;;11.13;1.55;;;22.10;99.90;;;;;;5075323;28;20677;-83
2021/07/06 08:59:54;;;;;;;10.95;1.42;;;23.90;99.90;;;;;;5052477;28;20203;-82
2021/07/06 09:02:22;;;;;;;10.88;1.60;;;26.00;99.90;;;;;;5059115;28;20174;-82
2021/07/06 09:04:52;;;;;;;11.85;1.80;;;26.50;99.90;;;;;;5073621;28;20216;-82
2021/07/06 09:07:19;;;;;;;6.07;1.58;;;25.60;99.90;;;;;;5089583;28;20173;-83
2021/07/06 09:09:45;;;;;;;13.57;1.60;;;24.40;99.90;;;;;;5074671;28;20681;-82
2021/07/06 09:12:13;;;;;;;8.27;1.60;;;23.20;99.90;;;;;;5063038;28;20182;-82
2021/07/06 09:14:41;;;;;;;8.73;1.55;;;22.30;99.90;;;;;;5096364;28;20566;-80
2021/07/06 09:17:15;;;;;;;3.85;1.52;;;21.70;99.90;;;;;;5095238;28;20269;-81
2021/07/06 09:19:43;;;;;;;16.02;2.28;;;21.60;99.90;;;;;;5093698;28;20166;-82
2021/07/06 09:22:11;;;;;;;6.82;1.50;;;21.70;99.90;;;;;;5076736;28;20177;-85
2021/07/06 09:24:38;;;;;;;11.68;1.55;;;23.40;99.90;;;;;;5077076;28;20171;-83
2021/07/06 09:27:25;;;;;;;12.13;1.92;;;24.00;99.90;;;;;;5094265;28;20266;-79
2021/07/06 09:30:15;;;;;;;3.88;1.15;;;24.00;99.90;;;;;;5077190;28;20230;-81
2021/07/06 09:32:43;;;;;;;7.03;1.88;;;24.30;99.90;;;;;;5072732;28;20194;-79
2021/07/06 09:35:12;;;;;;;6.47;1.58;;;24.20;99.90;;;;;;5076452;28;20591;-80
2021/07/06 09:37:58;;;;;;;2.10;1.00;;;26.30;99.90;;;;;;5080846;28;20170;-81
2021/07/06 09:40:28;;;;;;;6.10;1.27;;;27.80;99.90;;;;;;5078015;28;20210;-78
2021/07/06 09:43:27;;;;;;;7.82;1.20;;;27.90;99.90;;;;;;5078414;28;20631;-79
2021/07/06 09:46:04;;;;;;;3.55;1.35;;;28.50;99.90;;;;;;5075110;28;20183;-78
2021/07/06 09:48:31;;;;;;;18.58;2.00;;;28.70;99.90;;;;;;5077323;28;20162;-79
2021/07/06 09:51:25;;;;;;;8.00;1.40;;;27.90;99.90;;;;;;5076332;28;20178;-79
2021/07/06 09:53:53;;;;;;;7.40;1.20;;;27.00;99.90;;;;;;5072138;28;20202;-81
2021/07/06 09:56:26;;;;;;;10.43;1.67;;;27.70;99.90;;;;;;5078560;28;20572;-79
2021/07/06 09:58:59;;;;;;;7.07;1.70;;;27.20;99.90;;;;;;5077410;28;20189;-81
2021/07/06 10:01:25;;;;;;;13.65;1.25;;;27.80;99.90;;;;;;5074154;28;20190;-85
2021/07/06 10:03:52;;;;;;;11.07;1.25;;;28.30;99.90;;;;;;5087797;28;20626;-83
2021/07/06 10:06:21;;;;;;;4.75;1.30;;;28.30;99.90;;;;;;5076083;28;20684;-82
2021/07/06 10:08:48;;;;;;;15.90;1.85;;;28.40;99.90;;;;;;5075395;28;20595;-81
2021/07/06 10:11:14;;;;;;;14.70;1.63;;;27.00;99.90;;;;;;5057884;28;20171;-82
2021/07/06 10:13:40;;;;;;;9.48;1.25;;;26.20;99.90;;;;;;5073876;28;20206;-86
2021/07/06 10:16:06;;;;;;;7.07;1.25;;;26.50;99.90;;;;;;5085077;28;20583;-78
2021/07/06 10:18:32;;;;;;;16.08;1.48;;;26.80;99.90;;;;;;5091390;28;20174;-81
2021/07/06 10:21:03;;;;;;;19.88;1.60;;;26.20;99.90;;;;;;5075633;28;20662;-83
2021/07/06 10:23:29;;;;;;;5.80;0.77;;;26.00;99.90;;;;;;5076500;28;20630;-78
2021/07/06 10:25:58;;;;;;;7.93;1.42;;;24.90;99.90;;;;;;5071712;28;20223;-81
2021/07/06 10:28:26;;;;;;;11.40;1.35;;;24.20;99.90;;;;;;5073063;28;20701;-82
2021/07/06 10:30:54;;;;;;;4.75;1.55;;;23.40;99.90;;;;;;5073700;28;20638;-79
2021/07/06 10:33:31;;;;;;;10.25;1.65;;;22.80;99.90;;;;;;5075203;28;20293;-76
2021/07/06 10:35:59;;;;;;;12.77;1.85;;;22.20;99.90;;;;;;5074736;28;20586;-76
2021/07/06 10:38:28;;;;;;;9.20;1.77;;;21.90;99.90;;;;;;5086080;28;20684;-79
2021/07/06 10:40:54;;;;;;;7.00;1.70;;;22.00;99.90;;;;;;5086088;28;20175;-82
2021/07/06 10:43:30;;;;;;;7.80;1.40;;;22.20;99.90;;;;;;5094067;28;20174;-83
2021/07/06 10:45:57;;;;;;;4.30;1.40;;;22.10;99.90;;;;;;5055700;28;20182;-82
2021/07/06 10:48:43;;;;;;;5.88;1.17;;;22.60;99.90;;;;;;5074145;28;20182;-81
2021/07/06 10:51:29;;;;;;;12.63;1.55;;;23.30;99.90;;;;;;5071262;28;20175;-82
2021/07/06 10:54:05;;;;;;;4.22;1.35;;;25.20;99.90;;;;;;5073192;28;20225;-85
2021/07/06 10:56:35;;;;;;;8.50;1.02;;;27.20;99.90;;;;;;5065494;28;20174;-80
2021/07/06 10:59:03;;;;;;;14.93;2.30;;;27.50;99.90;;;;;;5073048;28;20182;-82
2021/07/06 11:01:38;;;;;;;2.85;0.95;;;26.20;99.90;;;;;;5050162;28;20186;-84
2021/07/06 11:04:08;;;;;;;11.18;1.40;;;25.50;99.90;;;;;;5054678;28;20197;-81
2021/07/06 11:06:48;;;;;;;15.10;1.40;;;25.80;99.90;;;;;;5076926;28;20170;-83
2021/07/06 11:09:25;;;;;;;14.57;1.35;;;27.40;99.90;;;;;;5083536;28;20179;-83
2021/07/06 11:11:51;;;;;;;4.28;1.10;;;28.30;99.90;;;;;;5072856;28;20183;-82
2021/07/06 11:14:22;;;;;;;10.23;1.35;;;27.40;99.90;;;;;;5077329;28;20681;-83
2021/07/06 11:17:02;;;;;;;19.65;2.13;;;27.10;99.90;;;;;;5078594;28;20190;-84
2021/07/06 11:19:41;;;;;;;11.30;1.33;;;26.50;99.90;;;;;;5083829;28;20173;-83
2021/07/06 11:22:15;;;;;;;7.35;1.35;;;26.60;99.90;;;;;;5072886;28;20548;-81
2021/07/06 11:24:45;;;;;;;7.57;1.48;;;28.10;99.90;;;;;;5073287;28;20179;-81
2021/07/06 11:27:14;;;;;;;6.18;1.20;;;27.90;99.90;;;;;;5074395;28;20167;-84
2021/07/06 11:29:41;;;;;;;8.05;1.45;;;27.20;99.90;;;;;;5072625;28;20175;-83
2021/07/06 11:32:16;;;;;;;18.20;1.23;;;25.80;99.90;;;;;;5073154;28;20258;-81
2021/07/06 11:34:43;;;;;;;10.35;1.50;;;24.70;99.90;;;;;;5073340;28;20524;-85
2021/07/06 11:37:12;;;;;;;12.02;1.58;;;24.50;99.90;;;;;;5072891;28;20171;-81
2021/07/06 11:39:38;;;;;;;9.38;2.05;;;24.10;99.90;;;;;;5072788;28;20167;-84
2021/07/06 11:42:04;;;;;;;4.63;1.60;;;23.50;99.90;;;;;;5075725;28;20178;-81
2021/07/06 11:44:30;;;;;;;12.10;1.70;;;22.90;99.90;;;;;;5058903;28;20238;-86
2021/07/06 11:47:13;;;;;;;6.90;1.45;;;22.70;99.90;;;;;;5075408;28;20175;-82
2021/07/06 11:49:40;;;;;;;4.80;1.20;;;22.50;99.90;;;;;;5059614;28;20182;-83
2021/07/06 11:52:06;;;;;;;6.47;1.20;;;22.00;99.90;;;;;;5076970;28;20166;-79
2021/07/06 11:54:32;;;;;;;11.93;1.60;;;21.80;99.90;;;;;;5058464;28;20650;-81
2021/07/06 11:57:06;;;;;;;5.93;0.95;;;21.70;99.90;;;;;;5077281;28;20254;-82
2021/07/06 11:59:31;;;;;;;9.60;1.90;;;21.80;99.90;;;;;;5077226;28;20242;-82
2021/07/06 12:02:08;;;;;;;5.07;1.27;;;21.80;99.90;;;;;;5058182;28;20198;-82
2021/07/06 12:04:36;;;;;;;12.07;1.13;;;21.80;99.90;;;;;;5076120;28;20219;-81
2021/07/06 12:07:10;;;;;;;8.20;1.75;;;21.70;99.90;;;;;;5075753;28;20166;-84
2021/07/06 12:09:37;;;;;;;7.03;0.95;;;21.60;99.90;;;;;;5074452;28;20623;-82
2021/07/06 12:12:08;;;;;;;5.35;1.27;;;21.70;99.90;;;;;;5075213;28;20227;-82
2021/07/06 12:14:34;;;;;;;17.33;1.42;;;21.80;99.90;;;;;;5074987;28;20179;-83
2021/07/06 12:17:00;;;;;;;9.32;1.33;;;21.70;99.90;;;;;;5075327;28;20163;-80
2021/07/06 12:19:28;;;;;;;10.95;1.75;;;21.40;99.90;;;;;;5074435;28;20163;-80
2021/07/06 12:21:55;;;;;;;14.32;1.70;;;21.20;99.90;;;;;;5074210;28;20182;-81
2021/07/06 12:24:23;;;;;;;5.35;1.08;;;21.10;99.90;;;;;;5076129;28;20167;-81
2021/07/06 12:26:50;;;;;;;3.60;1.00;;;21.00;99.90;;;;;;5074392;28;20173;-83
2021/07/06 12:29:35;;;;;;;9.35;1.13;;;20.90;99.90;;;;;;5075646;28;20624;-80
2021/07/06 12:32:02;;;;;;;5.35;1.13;;;21.10;99.90;;;;;;5074088;28;20183;-82
2021/07/06 12:34:58;;;;;;;3.92;1.10;;;21.60;99.90;;;;;;5071656;28;20221;-82
2021/07/06 12:37:28;;;;;;;3.90;1.02;;;21.90;99.90;;;;;;5059422;28;20186;-81
2021/07/06 12:40:08;;;;;;;8.57;1.50;;;22.60;99.90;;;;;;5055389;28;20531;-81
2021/07/06 12:42:39;;;;;;;4.55;1.80;;;23.40;99.90;;;;;;5073272;28;20174;-83
2021/07/06 12:45:12;;;;;;;3.90;0.93;;;23.40;99.90;;;;;;5073442;28;20167;-81
2021/07/06 12:47:42;;;;;;;2.88;1.02;;;23.50;99.90;;;;;;5073310;28;20173;-83
2021/07/06 12:50:21;;;;;;;1.85;1.02;;;23.40;99.90;;;;;;5072387;28;20163;-84